createdAt,value
2023-02-13T00:01:34.963Z,2.95
2023-02-13T00:04:02.585Z,2.78
2023-02-13T00:06:30.165Z,3.22
2023-02-13T00:08:59.083Z,2.80
2023-02-13T00:11:26.621Z,3.00
2023-02-13T00:13:54.198Z,1.92
2023-02-13T00:16:21.778Z,1.73
2023-02-13T00:18:49.348Z,2.08
2023-02-13T00:21:16.952Z,2.58
2023-02-13T00:23:44.564Z,2.40
2023-02-13T00:26:14.422Z,1.92
2023-02-13T00:28:44.958Z,2.55
2023-02-13T00:31:13.643Z,3.55
2023-02-13T00:33:42.671Z,3.53
2023-02-13T00:36:12.563Z,3.05
2023-02-13T00:38:40.969Z,3.33
2023-02-13T00:41:08.874Z,2.30
2023-02-13T00:43:38.160Z,2.15
2023-02-13T00:46:06.168Z,2.03
2023-02-13T00:48:34.557Z,3.05
2023-02-13T00:51:02.667Z,3.20
2023-02-13T00:53:31.578Z,2.97
2023-02-13T00:55:59.174Z,3.58
2023-02-13T00:58:27.016Z,2.70
2023-02-13T01:00:56.625Z,3.45
2023-02-13T01:03:25.542Z,3.25
2023-02-13T01:05:53.555Z,3.25
2023-02-13T01:08:21.768Z,3.25
2023-02-13T01:10:49.575Z,3.20
2023-02-13T01:13:18.389Z,2.28
2023-02-13T01:15:46.147Z,3.28
2023-02-13T01:18:18.594Z,3.25
2023-02-13T01:20:46.647Z,2.88
2023-02-13T01:23:14.224Z,3.13
2023-02-13T01:25:42.268Z,2.35
2023-02-13T01:28:09.880Z,3.05
2023-02-13T01:30:37.496Z,2.75
2023-02-13T01:33:05.092Z,3.03
2023-02-13T01:35:35.200Z,3.13
2023-02-13T01:38:02.888Z,2.80
2023-02-13T01:40:30.646Z,2.88
2023-02-13T01:42:58.236Z,3.60
2023-02-13T01:45:27.454Z,3.28
2023-02-13T01:47:57.275Z,3.10
2023-02-13T01:50:27.117Z,3.92
2023-02-13T01:52:58.601Z,3.45
2023-02-13T01:55:28.665Z,2.92
2023-02-13T01:58:00.274Z,3.53
2023-02-13T02:00:28.195Z,3.78
2023-02-13T02:02:59.178Z,2.88
2023-02-13T02:05:29.696Z,2.90
2023-02-13T02:07:59.842Z,2.58
2023-02-13T02:10:28.035Z,3.28
2023-02-13T02:12:59.764Z,2.97
2023-02-13T02:15:29.500Z,3.20
2023-02-13T02:17:57.106Z,3.75
2023-02-13T02:20:31.712Z,3.17
2023-02-13T02:23:17.087Z,3.53
2023-02-13T02:25:57.336Z,3.53
2023-02-13T02:28:33.018Z,2.88
2023-02-13T02:31:20.438Z,3.67
2023-02-13T02:33:55.277Z,2.20
2023-02-13T02:36:31.499Z,2.67
2023-02-13T02:39:04.151Z,4.18
2023-02-13T02:41:45.121Z,3.00
2023-02-13T02:44:21.347Z,3.78
2023-02-13T02:47:10.921Z,3.35
2023-02-13T02:50:00.008Z,3.45
2023-02-13T02:52:30.485Z,2.95
2023-02-13T02:55:07.672Z,3.08
2023-02-13T02:58:00.364Z,3.83
2023-02-13T03:00:47.408Z,3.28
2023-02-13T03:03:36.129Z,3.45
2023-02-13T03:06:11.805Z,2.90
2023-02-13T03:08:57.447Z,3.45
2023-02-13T03:11:51.143Z,3.95
2023-02-13T03:14:21.072Z,2.75
2023-02-13T03:17:06.939Z,4.53
2023-02-13T03:20:01.725Z,3.38
2023-02-13T03:22:41.415Z,3.42
2023-02-13T03:25:12.643Z,3.65
2023-02-13T03:28:03.095Z,3.58
2023-02-13T03:30:35.514Z,3.25
2023-02-13T03:33:07.837Z,3.45
2023-02-13T03:35:56.148Z,3.47
2023-02-13T03:38:27.354Z,2.67
2023-02-13T03:41:15.639Z,3.03
2023-02-13T03:43:46.911Z,4.00
2023-02-13T03:46:15.129Z,4.15
2023-02-13T03:49:01.682Z,3.75
2023-02-13T03:51:31.167Z,3.75
2023-02-13T03:54:01.703Z,2.30
2023-02-13T03:56:48.403Z,3.10
2023-02-13T03:59:19.341Z,2.72
2023-02-13T04:01:49.886Z,2.80
2023-02-13T04:04:20.196Z,4.00
2023-02-13T04:06:49.657Z,2.70
2023-02-13T04:09:18.829Z,3.08
2023-02-13T04:11:50.660Z,3.72
2023-02-13T04:14:21.414Z,3.65
2023-02-13T04:16:50.890Z,3.33
2023-02-13T04:19:18.713Z,2.80
2023-02-13T04:21:50.381Z,2.83
2023-02-13T04:24:19.313Z,3.42
2023-02-13T04:26:47.245Z,3.28
2023-02-13T04:29:14.829Z,3.85
2023-02-13T04:31:42.517Z,3.45
2023-02-13T04:34:10.206Z,3.05
2023-02-13T04:36:37.793Z,2.85
2023-02-13T04:39:05.410Z,4.05
2023-02-13T04:41:34.359Z,3.38
2023-02-13T04:44:01.935Z,2.92
2023-02-13T04:46:29.632Z,3.30
2023-02-13T04:48:57.222Z,2.92
2023-02-13T04:51:24.821Z,2.88
2023-02-13T04:53:52.395Z,2.88
2023-02-13T04:56:20.124Z,2.72
2023-02-13T04:58:49.234Z,2.75
2023-02-13T05:01:17.738Z,2.85
2023-02-13T05:03:45.367Z,3.60
2023-02-13T05:06:13.199Z,3.25
2023-02-13T05:08:40.866Z,2.63
2023-02-13T05:11:08.524Z,2.47
2023-02-13T05:13:36.070Z,2.28
2023-02-13T05:16:05.139Z,2.80
2023-02-13T05:18:32.735Z,2.75
2023-02-13T05:21:17.848Z,2.70
2023-02-13T05:23:45.435Z,3.25
2023-02-13T05:26:12.965Z,2.33
2023-02-13T05:28:58.014Z,2.78
2023-02-13T05:31:27.027Z,2.30
2023-02-13T05:33:54.654Z,2.42
2023-02-13T05:36:22.236Z,2.80
2023-02-13T05:38:49.804Z,3.30
2023-02-13T05:41:17.410Z,2.78
2023-02-13T05:43:44.979Z,2.22
2023-02-13T05:46:12.577Z,2.45
2023-02-13T05:48:41.512Z,1.83
2023-02-13T05:51:09.231Z,1.98
2023-02-13T05:53:36.806Z,2.78
2023-02-13T05:56:04.544Z,2.33
2023-02-13T05:58:32.211Z,2.25
2023-02-13T06:01:00.760Z,2.65
2023-02-13T06:03:29.214Z,2.28
2023-02-13T06:05:58.457Z,2.42
2023-02-13T06:08:26.557Z,2.53
2023-02-13T06:10:54.160Z,1.85
2023-02-13T06:13:21.740Z,2.35
2023-02-13T06:15:50.759Z,5.40
2023-02-13T06:18:18.370Z,5.68
2023-02-13T06:20:45.913Z,5.75
2023-02-13T06:23:15.095Z,5.95
2023-02-13T06:25:42.670Z,6.00
2023-02-13T06:28:10.290Z,5.63
2023-02-13T06:30:37.971Z,5.75
2023-02-13T06:33:05.538Z,5.45
2023-02-13T06:35:33.092Z,6.10
2023-02-13T06:38:00.688Z,5.55
2023-02-13T06:40:29.682Z,6.03
2023-02-13T06:42:57.226Z,6.20
2023-02-13T06:45:24.851Z,5.95
2023-02-13T06:47:52.789Z,6.10
2023-02-13T06:50:20.365Z,5.82
2023-02-13T06:52:48.742Z,5.60
2023-02-13T06:55:16.519Z,5.15
2023-02-13T06:57:45.734Z,5.25
2023-02-13T07:00:14.275Z,5.25
2023-02-13T07:02:42.028Z,5.43
2023-02-13T07:05:09.757Z,5.85
2023-02-13T07:07:37.730Z,4.85
2023-02-13T07:10:05.726Z,5.95
2023-02-13T07:12:33.956Z,5.35
2023-02-13T07:15:02.957Z,4.75
2023-02-13T07:17:31.259Z,5.43
2023-02-13T07:19:59.025Z,4.72
2023-02-13T07:22:26.619Z,4.40
2023-02-13T07:24:54.201Z,5.00
2023-02-13T07:27:21.793Z,4.88
2023-02-13T07:29:49.366Z,4.75
2023-02-13T07:32:18.324Z,4.93
2023-02-13T07:35:00.656Z,4.20
2023-02-13T07:37:29.592Z,4.47
2023-02-13T07:39:57.197Z,4.00
2023-02-13T07:42:24.777Z,4.28
2023-02-13T07:44:52.359Z,4.30
2023-02-13T07:47:21.278Z,4.20
2023-02-13T07:49:48.854Z,4.00
2023-02-13T07:52:16.433Z,3.95
2023-02-13T07:54:47.443Z,3.97
2023-02-13T07:57:15.417Z,4.35
2023-02-13T07:59:43.002Z,3.80
2023-02-13T08:02:12.152Z,3.78
2023-02-13T08:04:41.124Z,4.60
2023-02-13T08:07:08.838Z,3.92
2023-02-13T08:09:53.840Z,4.03
2023-02-13T08:12:21.520Z,4.05
2023-02-13T08:14:49.077Z,1.90
2023-02-13T08:17:16.673Z,1.73
2023-02-13T08:19:45.596Z,1.55
2023-02-13T08:22:13.173Z,2.20
2023-02-13T08:24:40.733Z,2.47
2023-02-13T08:27:08.305Z,2.20
2023-02-13T08:29:35.983Z,1.52
2023-02-13T08:32:03.612Z,1.60
2023-02-13T08:34:31.200Z,1.50
2023-02-13T08:37:00.132Z,1.58
2023-02-13T08:39:27.706Z,1.83
2023-02-13T08:41:55.339Z,1.58
2023-02-13T08:44:22.923Z,1.85
2023-02-13T08:46:50.501Z,1.35
2023-02-13T08:49:18.048Z,2.10
2023-02-13T08:51:45.645Z,1.65
2023-02-13T08:54:14.563Z,1.45
2023-02-13T08:56:42.153Z,1.35
2023-02-13T08:59:09.902Z,1.40
2023-02-13T09:01:37.611Z,1.38
2023-02-13T09:04:05.305Z,1.55
2023-02-13T09:06:32.912Z,1.40
2023-02-13T09:09:00.498Z,1.80
2023-02-13T09:11:29.480Z,1.27
2023-02-13T09:13:57.112Z,1.60
2023-02-13T09:16:24.673Z,1.45
2023-02-13T09:18:52.537Z,1.35
2023-02-13T09:21:20.821Z,1.08
2023-02-13T09:23:48.419Z,1.90
2023-02-13T09:26:18.593Z,1.58
2023-02-13T09:28:48.791Z,1.20
2023-02-13T09:31:17.491Z,1.25
2023-02-13T09:33:45.572Z,1.25
2023-02-13T09:36:14.519Z,1.17
2023-02-13T09:38:43.991Z,1.45
2023-02-13T09:41:14.299Z,1.33
2023-02-13T09:43:45.221Z,2.22
2023-02-13T09:46:16.598Z,1.65
2023-02-13T09:48:45.962Z,1.45
2023-02-13T09:51:15.695Z,1.58
2023-02-13T09:53:44.102Z,2.00
2023-02-13T09:56:14.511Z,0.88
2023-02-13T09:58:44.296Z,1.20
2023-02-13T10:01:19.681Z,1.52
2023-02-13T10:03:52.242Z,1.25
2023-02-13T10:06:24.381Z,1.98
2023-02-13T10:09:06.226Z,1.60
2023-02-13T10:11:43.567Z,1.58
2023-02-13T10:14:14.844Z,1.58
2023-02-13T10:16:46.101Z,0.93
2023-02-13T10:19:16.726Z,1.77
2023-02-13T10:21:50.859Z,1.38
2023-02-13T10:24:23.660Z,2.03
2023-02-13T10:26:52.605Z,1.63
2023-02-13T10:29:40.246Z,1.33
2023-02-13T10:32:10.477Z,1.58
2023-02-13T10:34:39.838Z,1.67
2023-02-13T10:37:12.481Z,1.00
2023-02-13T10:39:42.735Z,1.30
2023-02-13T10:42:16.280Z,1.52
2023-02-13T10:44:51.142Z,1.30
2023-02-13T10:47:27.110Z,1.40
2023-02-13T10:50:01.734Z,2.00
2023-02-13T10:52:34.751Z,1.50
2023-02-13T10:55:16.650Z,2.03
2023-02-13T10:57:58.130Z,1.52
2023-02-13T11:00:30.815Z,1.45
2023-02-13T11:03:00.094Z,1.70
2023-02-13T11:05:32.183Z,1.60
2023-02-13T11:08:00.691Z,1.17
2023-02-13T11:10:28.533Z,1.65
2023-02-13T11:12:56.467Z,1.42
2023-02-13T11:15:26.746Z,1.02
2023-02-13T11:17:55.265Z,1.48
2023-02-13T11:20:26.936Z,1.73
2023-02-13T11:22:54.660Z,1.30
2023-02-13T11:25:23.306Z,1.48
2023-02-13T11:27:53.043Z,1.35
2023-02-13T11:30:31.302Z,1.25
2023-02-13T11:32:59.917Z,1.73
2023-02-13T11:35:30.914Z,1.55
2023-02-13T11:38:15.452Z,1.35
2023-02-13T11:40:44.489Z,9.65
2023-02-13T11:43:18.585Z,0.80
2023-02-13T11:45:46.317Z,1.08
2023-02-13T11:48:21.900Z,1.08
2023-02-13T11:50:55.987Z,1.48
2023-02-13T11:53:25.536Z,1.55
2023-02-13T11:56:02.893Z,1.42
2023-02-13T11:58:31.752Z,1.10
2023-02-13T12:01:10.027Z,0.85
2023-02-13T12:03:38.729Z,1.40
2023-02-13T12:06:13.807Z,0.88
2023-02-13T12:08:42.271Z,1.33
2023-02-13T12:11:15.663Z,1.08
2023-02-13T12:13:43.557Z,1.35
2023-02-13T12:16:13.952Z,1.58
2023-02-13T12:18:43.679Z,1.08
2023-02-13T12:21:17.831Z,0.80
2023-02-13T12:23:48.439Z,1.88
2023-02-13T12:26:24.453Z,1.20
2023-02-13T12:29:02.244Z,0.90
2023-02-13T12:31:40.511Z,1.15
2023-02-13T12:34:26.558Z,1.80
2023-02-13T12:37:01.487Z,1.00
2023-02-13T12:39:32.676Z,1.65
2023-02-13T12:42:07.704Z,1.60
2023-02-13T12:44:45.941Z,0.80
2023-02-13T12:47:17.405Z,1.15
2023-02-13T12:49:53.332Z,1.10
2023-02-13T12:52:29.633Z,1.13
2023-02-13T12:55:03.518Z,1.48
2023-02-13T12:57:37.698Z,0.80
2023-02-13T13:00:18.421Z,0.65
2023-02-13T13:02:49.568Z,0.70
2023-02-13T13:05:24.329Z,1.15
2023-02-13T13:08:02.983Z,0.77
2023-02-13T13:10:37.124Z,1.20
2023-02-13T13:13:10.061Z,1.25
2023-02-13T13:15:41.089Z,1.10
2023-02-13T13:18:19.939Z,1.08
2023-02-13T13:20:56.213Z,0.85
2023-02-13T13:23:29.967Z,7.05
2023-02-13T13:26:02.765Z,0.82
2023-02-13T13:28:33.714Z,1.10
2023-02-13T13:31:02.066Z,1.75
2023-02-13T13:33:29.842Z,0.90
2023-02-13T13:36:02.469Z,1.15
2023-02-13T13:38:37.786Z,1.17
2023-02-13T13:41:09.679Z,1.33
2023-02-13T13:43:42.142Z,1.10
2023-02-13T13:46:12.424Z,1.45
2023-02-13T13:48:57.883Z,1.30
2023-02-13T13:51:25.524Z,1.08
2023-02-13T13:54:12.804Z,1.27
2023-02-13T13:57:01.947Z,1.00
2023-02-13T13:59:51.537Z,1.58
2023-02-13T14:02:41.428Z,0.85
2023-02-13T14:05:19.315Z,0.65
2023-02-13T14:07:47.834Z,0.95
2023-02-13T14:10:38.140Z,0.98
2023-02-13T14:13:07.834Z,0.98
2023-02-13T14:15:50.349Z,1.25
2023-02-13T14:18:23.578Z,1.20
2023-02-13T14:20:52.519Z,1.27
2023-02-13T14:23:25.477Z,1.17
2023-02-13T14:26:10.883Z,0.90
2023-02-13T14:28:39.193Z,0.90
2023-02-13T14:31:08.989Z,1.23
2023-02-13T14:33:38.059Z,0.85
2023-02-13T14:36:08.028Z,0.68
2023-02-13T14:38:36.518Z,1.25
2023-02-13T14:41:05.626Z,1.30
2023-02-13T14:43:34.946Z,0.82
2023-02-13T14:46:09.760Z,0.95
2023-02-13T14:48:41.167Z,1.02
2023-02-13T14:51:15.425Z,1.30
2023-02-13T14:53:48.891Z,1.20
2023-02-13T14:56:19.807Z,0.90
2023-02-13T14:58:49.614Z,1.02
2023-02-13T15:01:22.345Z,0.93
2023-02-13T15:03:54.517Z,0.60
2023-02-13T15:06:26.019Z,1.10
2023-02-13T15:08:54.266Z,1.00
2023-02-13T15:11:38.519Z,0.95
2023-02-13T15:14:22.944Z,0.47
2023-02-13T15:16:52.712Z,0.85
2023-02-13T15:19:23.081Z,1.10
2023-02-13T15:21:52.352Z,0.70
2023-02-13T15:24:22.774Z,0.88
2023-02-13T15:27:00.120Z,0.98
2023-02-13T15:29:38.000Z,1.15
2023-02-13T15:32:19.333Z,0.75
2023-02-13T15:34:49.562Z,1.00
2023-02-13T15:37:23.728Z,0.70
2023-02-13T15:39:51.288Z,0.85
2023-02-13T15:42:18.857Z,1.23
2023-02-13T15:44:47.649Z,0.63
2023-02-13T15:47:19.150Z,1.17
2023-02-13T15:49:48.104Z,1.02
2023-02-13T15:52:19.559Z,1.17
2023-02-13T15:54:50.725Z,0.88
2023-02-13T15:57:18.577Z,1.40
2023-02-13T15:59:46.694Z,1.00
2023-02-13T16:02:17.434Z,1.67
2023-02-13T16:04:46.458Z,1.38
2023-02-13T16:07:14.803Z,1.45
2023-02-13T16:09:43.748Z,2.10
2023-02-13T16:12:18.981Z,1.70
2023-02-13T16:14:49.286Z,1.55
2023-02-13T16:17:19.455Z,1.70
2023-02-13T16:19:53.113Z,2.00
2023-02-13T16:22:28.707Z,1.45
2023-02-13T16:25:04.208Z,1.73
2023-02-13T16:27:32.004Z,1.58
2023-02-13T16:30:00.529Z,1.45
2023-02-13T16:32:29.544Z,1.95
2023-02-13T16:34:57.277Z,1.42
2023-02-13T16:37:27.866Z,1.45
2023-02-13T16:39:57.015Z,2.13
2023-02-13T16:42:26.436Z,1.60
2023-02-13T16:45:08.877Z,2.30
2023-02-13T16:47:36.488Z,1.95
2023-02-13T16:50:04.118Z,1.98
2023-02-13T16:52:31.807Z,1.70
2023-02-13T16:55:00.463Z,1.80
2023-02-13T16:57:31.307Z,2.00
2023-02-13T17:00:04.058Z,1.90
2023-02-13T17:02:33.117Z,1.70
2023-02-13T17:05:12.270Z,1.75
2023-02-13T17:07:40.580Z,1.88
2023-02-13T17:10:09.463Z,1.35
2023-02-13T17:12:38.898Z,1.77
2023-02-13T17:15:12.241Z,1.98
2023-02-13T17:17:40.104Z,1.45
2023-02-13T17:20:08.559Z,1.80
2023-02-13T17:22:37.887Z,1.92
2023-02-13T17:25:07.366Z,1.70
2023-02-13T17:27:34.967Z,2.10
2023-02-13T17:30:04.249Z,1.92
2023-02-13T17:32:31.914Z,2.50
2023-02-13T17:34:59.463Z,2.20
2023-02-13T17:37:28.298Z,2.25
2023-02-13T17:39:55.879Z,2.10
2023-02-13T17:42:24.660Z,2.50
2023-02-13T17:44:52.836Z,2.55
2023-02-13T17:47:22.224Z,2.78
2023-02-13T17:49:49.993Z,2.90
2023-02-13T17:52:19.119Z,2.58
2023-02-13T17:54:46.712Z,2.95
2023-02-13T17:57:14.895Z,2.42
2023-02-13T17:59:42.883Z,2.45
2023-02-13T18:02:13.169Z,2.35
2023-02-13T18:04:42.173Z,2.30
2023-02-13T18:07:10.533Z,1.95
2023-02-13T18:09:38.763Z,2.70
2023-02-13T18:12:07.074Z,2.45
2023-02-13T18:14:35.127Z,2.90
2023-02-13T18:17:03.413Z,3.13
2023-02-13T18:19:30.995Z,2.88
2023-02-13T18:22:00.034Z,2.00
2023-02-13T18:24:29.636Z,3.28
2023-02-13T18:26:57.278Z,3.03
2023-02-13T18:29:24.907Z,3.92
2023-02-13T18:31:53.311Z,2.97
2023-02-13T18:34:21.304Z,3.13
2023-02-13T18:36:49.314Z,3.70
2023-02-13T18:39:18.263Z,3.55
2023-02-13T18:41:46.142Z,3.10
2023-02-13T18:44:23.320Z,2.97
2023-02-13T18:46:55.612Z,3.05
2023-02-13T18:49:23.177Z,3.28
2023-02-13T18:51:51.010Z,3.25
2023-02-13T18:54:21.137Z,3.65
2023-02-13T18:56:48.769Z,3.53
2023-02-13T18:59:16.376Z,3.88
2023-02-13T19:01:43.997Z,3.20
2023-02-13T19:04:11.963Z,3.38
2023-02-13T19:06:40.328Z,3.25
2023-02-13T19:09:08.158Z,3.17
2023-02-13T19:11:38.763Z,3.78
2023-02-13T19:14:06.704Z,3.42
2023-02-13T19:16:35.243Z,4.10
2023-02-13T19:19:04.314Z,3.33
2023-02-13T19:21:32.609Z,3.78
2023-02-13T19:24:00.353Z,3.70
2023-02-13T19:26:28.153Z,3.63
2023-02-13T19:28:57.548Z,3.88
2023-02-13T19:31:26.201Z,4.05
2023-02-13T19:33:53.957Z,4.22
2023-02-13T19:36:22.800Z,3.47
2023-02-13T19:38:54.254Z,3.78
2023-02-13T19:41:21.924Z,3.72
2023-02-13T19:43:51.293Z,4.18
2023-02-13T19:46:20.990Z,4.47
2023-02-13T19:48:48.662Z,4.10
2023-02-13T19:51:17.315Z,3.65
2023-02-13T19:53:44.899Z,4.50
2023-02-13T19:56:12.934Z,4.22
2023-02-13T19:58:43.341Z,4.10
2023-02-13T20:01:12.042Z,1.80
2023-02-13T20:03:41.021Z,1.40
2023-02-13T20:06:09.759Z,1.75
2023-02-13T20:08:37.746Z,1.60
2023-02-13T20:11:07.569Z,1.77
2023-02-13T20:13:35.563Z,1.88
2023-02-13T20:16:05.370Z,1.75
2023-02-13T20:18:33.111Z,2.47
2023-02-13T20:21:05.299Z,1.50
2023-02-13T20:23:32.859Z,1.77
2023-02-13T20:26:03.713Z,1.60
2023-02-13T20:28:31.277Z,1.38
2023-02-13T20:30:59.343Z,1.98
2023-02-13T20:33:27.112Z,1.60
2023-02-13T20:35:55.702Z,1.27
2023-02-13T20:38:25.606Z,1.75
2023-02-13T20:40:53.170Z,1.42
2023-02-13T20:43:21.893Z,1.13
2023-02-13T20:45:49.558Z,1.50
2023-02-13T20:48:17.159Z,1.70
2023-02-13T20:50:44.739Z,2.20
2023-02-13T20:53:12.976Z,1.42
2023-02-13T20:55:41.904Z,1.33
2023-02-13T20:58:09.971Z,2.05
2023-02-13T21:00:37.589Z,1.83
2023-02-13T21:03:05.704Z,1.83
2023-02-13T21:05:33.331Z,1.73
2023-02-13T21:08:01.238Z,1.27
2023-02-13T21:10:28.807Z,1.90
2023-02-13T21:12:57.759Z,1.80
2023-02-13T21:15:25.364Z,1.70
2023-02-13T21:17:52.940Z,1.88
2023-02-13T21:20:20.535Z,1.67
2023-02-13T21:22:48.127Z,1.75
2023-02-13T21:25:15.867Z,1.05
2023-02-13T21:27:43.440Z,1.55
2023-02-13T21:30:12.906Z,1.45
2023-02-13T21:32:40.598Z,1.88
2023-02-13T21:35:08.694Z,1.95
2023-02-13T21:37:36.265Z,1.27
2023-02-13T21:40:03.817Z,1.65
2023-02-13T21:42:31.363Z,2.15
2023-02-13T21:44:59.367Z,1.50
2023-02-13T21:47:28.335Z,2.25
2023-02-13T21:49:55.894Z,1.55
2023-02-13T21:52:24.056Z,2.22
2023-02-13T21:54:51.650Z,1.50
2023-02-13T21:57:19.215Z,1.70
2023-02-13T21:59:46.775Z,1.80
2023-02-13T22:02:14.403Z,2.28
2023-02-13T22:04:43.458Z,2.20
2023-02-13T22:07:11.278Z,1.80
2023-02-13T22:09:38.966Z,1.77
2023-02-13T22:12:06.675Z,1.30
2023-02-13T22:14:34.258Z,2.05
2023-02-13T22:17:01.961Z,1.63
2023-02-13T22:19:29.623Z,1.95
2023-02-13T22:21:58.550Z,2.15
2023-02-13T22:24:27.667Z,2.13
2023-02-13T22:26:55.242Z,1.88
2023-02-13T22:29:23.817Z,2.08
2023-02-13T22:31:51.556Z,1.95
2023-02-13T22:34:20.348Z,2.13
2023-02-13T22:36:47.911Z,2.30
2023-02-13T22:39:16.851Z,1.50
2023-02-13T22:41:45.662Z,1.17
2023-02-13T22:44:13.330Z,1.85
2023-02-13T22:46:40.974Z,1.92
2023-02-13T22:49:08.602Z,2.03
2023-02-13T22:51:36.860Z,2.08
2023-02-13T22:54:04.984Z,1.58
2023-02-13T22:56:34.366Z,1.70
2023-02-13T22:59:02.139Z,2.00
2023-02-13T23:01:30.005Z,1.88
2023-02-13T23:03:57.699Z,2.50
2023-02-13T23:06:25.483Z,2.03
2023-02-13T23:08:53.624Z,1.30
2023-02-13T23:11:40.183Z,1.33
2023-02-13T23:14:10.004Z,1.98
2023-02-13T23:16:52.553Z,1.80
2023-02-13T23:19:20.465Z,2.25
2023-02-13T23:21:48.077Z,1.48
2023-02-13T23:24:16.061Z,1.95
2023-02-13T23:26:43.641Z,1.40
2023-02-13T23:29:12.511Z,2.67
2023-02-13T23:31:40.293Z,1.63
2023-02-13T23:34:08.091Z,2.00
2023-02-13T23:36:35.690Z,2.55
2023-02-13T23:39:03.286Z,2.17
2023-02-13T23:41:30.849Z,2.30
2023-02-13T23:43:58.413Z,1.88
2023-02-13T23:46:27.379Z,1.48
2023-02-13T23:48:54.984Z,2.10
2023-02-13T23:51:23.134Z,2.00
2023-02-13T23:53:53.114Z,1.67
2023-02-13T23:56:20.673Z,2.05
2023-02-13T23:58:48.250Z,2.40
